createdAt,value
2022-10-13T00:00:09.557Z,60.62
2022-10-13T00:02:35.843Z,60.76
2022-10-13T00:05:02.699Z,60.61
2022-10-13T00:07:29.040Z,60.71
2022-10-13T00:09:55.473Z,60.60
2022-10-13T00:12:22.039Z,60.72
2022-10-13T00:14:48.331Z,60.86
2022-10-13T00:17:14.730Z,60.77
2022-10-13T00:19:41.136Z,60.61
2022-10-13T00:22:07.554Z,60.73
2022-10-13T00:24:34.075Z,60.62
2022-10-13T00:27:00.401Z,60.65
2022-10-13T00:29:26.823Z,60.56
2022-10-13T00:31:53.176Z,60.91
2022-10-13T00:34:19.467Z,60.85
2022-10-13T00:36:45.775Z,60.80
2022-10-13T00:39:12.279Z,60.53
2022-10-13T00:41:39.005Z,60.78
2022-10-13T00:44:05.326Z,60.79
2022-10-13T00:46:31.691Z,60.87
2022-10-13T00:48:57.987Z,60.71
2022-10-13T00:51:24.305Z,60.77
2022-10-13T00:53:50.876Z,60.55
2022-10-13T00:56:17.362Z,60.50
2022-10-13T00:58:43.799Z,60.67
2022-10-13T01:01:10.107Z,60.69
2022-10-13T01:03:36.536Z,60.55
2022-10-13T01:06:02.956Z,60.42
2022-10-13T01:08:29.265Z,60.81
2022-10-13T01:10:55.757Z,60.54
2022-10-13T01:13:22.230Z,60.72
2022-10-13T01:15:48.695Z,60.89
2022-10-13T01:18:19.141Z,60.18
2022-10-13T01:20:45.492Z,60.50
2022-10-13T01:23:12.362Z,60.51
2022-10-13T01:25:38.630Z,60.54
2022-10-13T01:28:04.975Z,60.50
2022-10-13T01:30:31.351Z,60.54
2022-10-13T01:32:57.725Z,60.73
2022-10-13T01:35:24.108Z,60.67
2022-10-13T01:37:50.449Z,60.49
2022-10-13T01:40:16.918Z,60.66
2022-10-13T01:42:43.254Z,60.78
2022-10-13T01:45:10.564Z,60.46
2022-10-13T01:47:36.814Z,60.49
2022-10-13T01:50:03.201Z,60.64
2022-10-13T01:52:29.768Z,60.40
2022-10-13T01:54:56.071Z,60.78
2022-10-13T01:57:22.456Z,60.32
2022-10-13T01:59:48.810Z,60.45
2022-10-13T02:02:15.184Z,60.52
2022-10-13T02:04:42.007Z,60.49
2022-10-13T02:07:08.383Z,60.58
2022-10-13T02:09:34.722Z,60.34
2022-10-13T02:12:01.059Z,60.47
2022-10-13T02:14:27.717Z,60.45
2022-10-13T02:16:54.015Z,60.64
2022-10-13T02:19:20.359Z,60.50
2022-10-13T02:21:46.839Z,60.54
2022-10-13T02:24:13.126Z,60.45
2022-10-13T02:26:39.458Z,60.52
2022-10-13T02:29:05.906Z,60.49
2022-10-13T02:31:32.368Z,60.56
2022-10-13T02:33:58.776Z,60.32
2022-10-13T02:36:25.107Z,60.47
2022-10-13T02:38:51.578Z,60.42
2022-10-13T02:41:18.655Z,60.44
2022-10-13T02:43:44.990Z,60.18
2022-10-13T02:46:11.591Z,60.62
2022-10-13T02:48:37.999Z,60.53
2022-10-13T02:51:04.352Z,60.51
2022-10-13T02:53:30.915Z,60.59
2022-10-13T02:55:57.289Z,60.09
2022-10-13T02:58:23.873Z,60.25
2022-10-13T03:00:50.244Z,60.54
2022-10-13T03:03:16.637Z,60.55
2022-10-13T03:05:42.941Z,60.16
2022-10-13T03:08:09.286Z,60.38
2022-10-13T03:10:35.735Z,60.62
2022-10-13T03:13:02.100Z,60.30
2022-10-13T03:15:28.449Z,60.12
2022-10-13T03:17:54.833Z,60.31
2022-10-13T03:20:21.372Z,60.27
2022-10-13T03:22:49.919Z,60.25
2022-10-13T03:25:16.507Z,60.34
2022-10-13T03:27:42.855Z,60.40
2022-10-13T03:30:09.303Z,60.31
2022-10-13T03:32:35.675Z,60.22
2022-10-13T03:35:02.064Z,60.72
2022-10-13T03:37:28.620Z,60.30
2022-10-13T03:39:54.995Z,60.73
2022-10-13T03:42:21.637Z,60.20
2022-10-13T03:44:52.368Z,60.10
2022-10-13T03:47:21.832Z,60.39
2022-10-13T03:49:48.163Z,60.58
2022-10-13T03:52:14.455Z,60.07
2022-10-13T03:54:40.783Z,60.49
2022-10-13T03:57:08.999Z,60.28
2022-10-13T03:59:36.990Z,60.02
2022-10-13T04:02:03.918Z,60.31
2022-10-13T04:04:30.422Z,60.17
2022-10-13T04:06:57.345Z,60.34
2022-10-13T04:09:23.659Z,60.41
2022-10-13T04:11:50.196Z,60.26
2022-10-13T04:14:16.521Z,60.33
2022-10-13T04:16:42.881Z,60.25
2022-10-13T04:19:09.695Z,60.00
2022-10-13T04:21:36.019Z,60.28
2022-10-13T04:24:02.459Z,60.32
2022-10-13T04:26:28.823Z,60.57
2022-10-13T04:28:55.282Z,60.57
2022-10-13T04:31:21.795Z,60.38
2022-10-13T04:33:48.124Z,59.97
2022-10-13T04:36:14.480Z,60.51
2022-10-13T04:38:40.900Z,60.20
2022-10-13T04:41:07.861Z,60.21
2022-10-13T04:43:34.432Z,60.27
2022-10-13T04:46:00.803Z,60.12
2022-10-13T04:48:27.155Z,60.51
2022-10-13T04:50:53.566Z,60.24
2022-10-13T04:53:19.977Z,60.28
2022-10-13T04:55:46.329Z,60.17
2022-10-13T04:58:12.930Z,60.42
2022-10-13T05:00:39.306Z,60.57
2022-10-13T05:03:05.661Z,60.08
2022-10-13T05:05:32.008Z,60.56
2022-10-13T05:07:58.303Z,60.29
2022-10-13T05:10:24.635Z,60.31
2022-10-13T05:12:51.003Z,60.06
2022-10-13T05:15:17.351Z,60.31
2022-10-13T05:17:43.915Z,60.45
2022-10-13T05:20:10.183Z,60.46
2022-10-13T05:22:36.528Z,60.14
2022-10-13T05:25:02.839Z,60.36
2022-10-13T05:27:29.684Z,60.23
2022-10-13T05:29:56.035Z,60.34
2022-10-13T05:32:22.884Z,60.10
2022-10-13T05:34:49.705Z,59.07
2022-10-13T05:37:17.255Z,58.77
2022-10-13T05:39:47.037Z,59.41
2022-10-13T05:42:15.071Z,59.66
2022-10-13T05:44:41.420Z,60.09
2022-10-13T05:47:07.904Z,59.50
2022-10-13T05:49:34.318Z,60.08
2022-10-13T05:52:01.455Z,59.73
2022-10-13T05:54:27.978Z,59.92
2022-10-13T05:56:54.354Z,60.13
2022-10-13T05:59:26.042Z,59.82
2022-10-13T06:01:53.688Z,59.92
2022-10-13T06:04:20.128Z,60.28
2022-10-13T06:06:46.613Z,59.95
2022-10-13T06:09:13.075Z,60.33
2022-10-13T06:11:39.525Z,60.16
2022-10-13T06:14:05.950Z,59.96
2022-10-13T06:16:32.784Z,60.16
2022-10-13T06:18:59.335Z,60.22
2022-10-13T06:21:25.776Z,59.88
2022-10-13T06:23:52.134Z,60.12
2022-10-13T06:26:18.555Z,59.99
2022-10-13T06:28:49.099Z,60.15
2022-10-13T06:31:16.934Z,60.16
2022-10-13T06:33:43.580Z,60.08
2022-10-13T06:36:10.159Z,60.30
2022-10-13T06:38:36.566Z,60.30
2022-10-13T06:41:02.869Z,60.01
2022-10-13T06:43:36.000Z,59.98
2022-10-13T06:46:06.381Z,59.98
2022-10-13T06:48:32.828Z,60.20
2022-10-13T06:50:59.317Z,60.29
2022-10-13T06:53:25.653Z,60.40
2022-10-13T06:55:52.723Z,60.02
2022-10-13T06:58:19.221Z,60.00
2022-10-13T07:00:45.732Z,60.08
2022-10-13T07:03:12.186Z,60.42
2022-10-13T07:05:38.504Z,60.46
2022-10-13T07:08:04.863Z,60.57
2022-10-13T07:10:31.262Z,60.49
2022-10-13T07:12:57.620Z,60.27
2022-10-13T07:15:23.948Z,60.51
2022-10-13T07:17:50.504Z,60.50
2022-10-13T07:20:16.818Z,60.58
2022-10-13T07:22:43.435Z,60.38
2022-10-13T07:25:09.776Z,60.66
2022-10-13T07:27:36.142Z,60.62
2022-10-13T07:30:02.600Z,60.55
2022-10-13T07:32:29.293Z,60.74
2022-10-13T07:34:55.699Z,60.90
2022-10-13T07:37:22.379Z,60.23
2022-10-13T07:39:49.077Z,60.83
2022-10-13T07:42:15.694Z,60.82
2022-10-13T07:44:42.175Z,60.80
2022-10-13T07:47:08.642Z,60.82
2022-10-13T07:49:35.119Z,60.80
2022-10-13T07:52:01.471Z,60.61
2022-10-13T07:54:27.878Z,60.70
2022-10-13T07:56:54.228Z,60.62
2022-10-13T07:59:20.624Z,60.77
2022-10-13T08:01:47.055Z,60.96
2022-10-13T08:04:13.494Z,60.90
2022-10-13T08:09:07.116Z,60.67
2022-10-13T08:11:33.456Z,60.83
2022-10-13T08:13:59.895Z,60.81
2022-10-13T08:16:26.216Z,60.62
2022-10-13T08:18:52.673Z,60.95
2022-10-13T08:24:05.790Z,60.85
2022-10-13T08:26:32.133Z,60.80
2022-10-13T08:29:16.533Z,60.74
2022-10-13T08:31:43.937Z,60.63
2022-10-13T08:34:10.541Z,60.79
2022-10-13T08:36:36.882Z,60.75
2022-10-13T08:39:03.630Z,60.49
2022-10-13T08:41:30.240Z,60.42
2022-10-13T08:44:40.925Z,60.46
2022-10-13T08:46:43.414Z,60.47
2022-10-13T08:49:09.851Z,60.49
2022-10-13T08:51:36.243Z,60.56
2022-10-13T08:54:02.612Z,60.63
2022-10-13T08:56:28.996Z,60.79
2022-10-13T08:58:55.535Z,60.44
2022-10-13T09:01:21.912Z,60.74
2022-10-13T09:03:48.261Z,60.53
2022-10-13T09:06:14.676Z,60.67
2022-10-13T09:08:44.510Z,60.64
2022-10-13T09:11:10.915Z,60.45
2022-10-13T09:13:37.260Z,60.51
2022-10-13T09:16:03.642Z,60.53
2022-10-13T09:18:30.287Z,60.60
2022-10-13T09:20:56.565Z,60.61
2022-10-13T09:23:23.184Z,60.58
2022-10-13T09:25:49.839Z,60.81
2022-10-13T09:28:16.264Z,60.71
2022-10-13T09:30:43.038Z,60.76
2022-10-13T09:33:09.583Z,60.90
2022-10-13T09:35:36.025Z,60.98
2022-10-13T09:38:02.407Z,60.93
2022-10-13T09:40:29.112Z,60.83
2022-10-13T09:42:55.644Z,61.25
2022-10-13T09:45:22.013Z,60.94
2022-10-13T09:47:48.424Z,61.12
2022-10-13T09:50:15.115Z,61.35
2022-10-13T09:52:41.488Z,61.36
2022-10-13T09:55:07.867Z,61.26
2022-10-13T09:57:34.248Z,61.20
2022-10-13T10:02:27.475Z,61.71
2022-10-13T10:04:53.944Z,61.55
2022-10-13T10:07:20.482Z,61.91
2022-10-13T10:09:47.270Z,61.98
2022-10-13T10:12:13.607Z,61.85
2022-10-13T10:14:40.203Z,62.02
2022-10-13T10:17:06.798Z,62.18
2022-10-13T10:19:33.231Z,62.00
2022-10-13T10:21:59.732Z,61.72
2022-10-13T10:24:26.750Z,61.94
2022-10-13T10:26:53.144Z,61.97
2022-10-13T10:29:19.832Z,61.90
2022-10-13T10:31:47.217Z,62.27
2022-10-13T10:34:15.468Z,62.04
2022-10-13T10:36:42.315Z,62.22
2022-10-13T10:39:08.726Z,62.12
2022-10-13T10:41:35.188Z,62.00
2022-10-13T10:44:01.841Z,61.96
2022-10-13T10:46:28.138Z,62.12
2022-10-13T10:48:54.617Z,62.32
2022-10-13T10:51:20.948Z,62.04
2022-10-13T10:53:47.629Z,62.26
2022-10-13T10:56:14.018Z,62.06
2022-10-13T10:58:40.640Z,62.17
2022-10-13T11:01:06.993Z,62.12
2022-10-13T11:03:33.625Z,62.11
2022-10-13T11:05:59.979Z,61.94
2022-10-13T11:08:26.522Z,62.39
2022-10-13T11:10:52.918Z,62.28
2022-10-13T11:13:19.535Z,62.53
2022-10-13T11:15:45.920Z,62.33
2022-10-13T11:18:12.289Z,62.10
2022-10-13T11:20:38.899Z,62.09
2022-10-13T11:23:05.458Z,62.00
2022-10-13T11:25:32.944Z,62.52
2022-10-13T11:27:59.335Z,62.48
2022-10-13T11:30:25.735Z,62.37
2022-10-13T11:32:52.224Z,62.56
2022-10-13T11:35:18.585Z,62.31
2022-10-13T11:37:55.699Z,62.23
2022-10-13T11:40:27.218Z,62.52
2022-10-13T11:42:56.893Z,62.55
2022-10-13T11:45:25.616Z,62.43
2022-10-13T11:47:52.228Z,62.56
2022-10-13T11:50:18.790Z,62.58
2022-10-13T11:52:45.122Z,62.50
2022-10-13T11:55:11.588Z,62.48
2022-10-13T11:57:38.016Z,62.48
2022-10-13T12:00:04.439Z,62.47
2022-10-13T12:02:31.877Z,62.24
2022-10-13T12:04:58.372Z,62.11
2022-10-13T12:07:24.903Z,62.27
2022-10-13T12:09:51.314Z,62.24
2022-10-13T12:12:18.267Z,62.19
2022-10-13T12:14:45.204Z,62.34
2022-10-13T12:17:16.106Z,62.14
2022-10-13T12:19:47.809Z,62.20
2022-10-13T12:22:14.161Z,62.27
2022-10-13T12:24:40.493Z,62.24
2022-10-13T12:27:06.774Z,62.47
2022-10-13T12:29:37.179Z,62.17
2022-10-13T12:32:04.169Z,62.23
2022-10-13T12:34:30.611Z,62.34
2022-10-13T12:36:56.925Z,62.48
2022-10-13T12:39:23.293Z,62.52
2022-10-13T12:41:49.630Z,62.39
2022-10-13T12:44:16.187Z,62.47
2022-10-13T12:46:42.769Z,62.59
2022-10-13T12:49:09.099Z,62.56
2022-10-13T12:51:35.463Z,62.12
2022-10-13T12:54:02.029Z,62.60
2022-10-13T12:56:28.478Z,62.60
2022-10-13T12:58:55.154Z,62.55
2022-10-13T13:01:22.341Z,62.54
2022-10-13T13:03:48.755Z,62.34
2022-10-13T13:06:15.173Z,62.67
2022-10-13T13:08:41.500Z,62.46
2022-10-13T13:11:07.874Z,62.32
2022-10-13T13:13:34.216Z,62.35
2022-10-13T13:16:00.558Z,62.50
2022-10-13T13:18:27.155Z,62.47
2022-10-13T13:20:53.544Z,62.88
2022-10-13T13:23:19.921Z,62.74
2022-10-13T13:25:46.350Z,62.67
2022-10-13T13:28:12.881Z,62.43
2022-10-13T13:30:39.334Z,62.54
2022-10-13T13:33:06.795Z,62.63
2022-10-13T13:35:33.309Z,62.81
2022-10-13T13:37:59.724Z,62.80
2022-10-13T13:40:26.347Z,62.48
2022-10-13T13:42:52.965Z,62.70
2022-10-13T13:45:19.384Z,62.57
2022-10-13T13:47:45.765Z,62.82
2022-10-13T13:50:12.093Z,62.75
2022-10-13T13:52:38.571Z,62.81
2022-10-13T13:55:05.429Z,62.77
2022-10-13T13:57:31.794Z,62.65
2022-10-13T13:59:58.148Z,62.81
2022-10-13T14:02:24.487Z,62.62
2022-10-13T14:04:50.868Z,62.82
2022-10-13T14:07:17.360Z,62.60
2022-10-13T14:09:43.945Z,62.88
2022-10-13T14:12:10.325Z,62.78
2022-10-13T14:14:37.590Z,62.81
2022-10-13T14:17:03.974Z,62.93
2022-10-13T14:19:30.452Z,62.58
2022-10-13T14:21:56.831Z,62.58
2022-10-13T14:24:23.364Z,62.58
2022-10-13T14:26:49.711Z,62.51
2022-10-13T14:29:16.146Z,62.80
2022-10-13T14:31:42.690Z,62.73
2022-10-13T14:34:09.153Z,62.75
2022-10-13T14:36:35.772Z,62.79
2022-10-13T14:39:02.168Z,62.97
2022-10-13T14:41:28.585Z,62.95
2022-10-13T14:43:55.040Z,63.21
2022-10-13T14:46:21.684Z,63.06
2022-10-13T14:48:48.167Z,62.98
2022-10-13T14:51:14.544Z,63.05
2022-10-13T14:53:40.918Z,63.04
2022-10-13T14:56:07.207Z,63.07
2022-10-13T14:58:33.524Z,63.34
2022-10-13T15:00:59.939Z,62.98
2022-10-13T15:03:26.434Z,63.26
2022-10-13T15:05:52.767Z,63.07
2022-10-13T15:08:19.181Z,62.97
2022-10-13T15:10:45.719Z,63.27
2022-10-13T15:13:12.188Z,63.05
2022-10-13T15:15:38.731Z,63.13
2022-10-13T15:18:05.270Z,63.17
2022-10-13T15:20:31.666Z,62.95
2022-10-13T15:22:58.083Z,63.13
2022-10-13T15:25:24.731Z,63.16
2022-10-13T15:27:51.230Z,63.26
2022-10-13T15:30:17.784Z,63.07
2022-10-13T15:32:44.228Z,63.29
2022-10-13T15:35:10.833Z,63.14
2022-10-13T15:37:37.264Z,63.17
2022-10-13T15:40:03.600Z,63.00
2022-10-13T15:42:30.106Z,63.07
2022-10-13T15:47:40.705Z,63.14
2022-10-13T15:50:07.234Z,63.45
2022-10-13T15:52:35.250Z,63.42
2022-10-13T15:55:01.649Z,63.41
2022-10-13T15:57:28.048Z,63.62
2022-10-13T15:59:54.455Z,63.50
2022-10-13T16:02:21.079Z,63.53
2022-10-13T16:04:47.642Z,63.49
2022-10-13T16:07:14.801Z,63.44
2022-10-13T16:09:41.207Z,63.44
2022-10-13T16:12:07.471Z,63.67
2022-10-13T16:14:33.811Z,63.78
2022-10-13T16:17:00.237Z,63.65
2022-10-13T16:19:26.887Z,63.49
2022-10-13T16:24:37.476Z,63.80
2022-10-13T16:27:03.981Z,63.45
2022-10-13T16:29:30.483Z,63.81
2022-10-13T16:31:57.015Z,63.95
2022-10-13T16:34:23.594Z,63.84
2022-10-13T16:36:49.911Z,63.98
2022-10-13T16:39:16.326Z,63.89
2022-10-13T16:41:42.713Z,63.79
2022-10-13T16:44:10.119Z,64.13
2022-10-13T16:46:36.828Z,63.93
2022-10-13T16:49:04.519Z,64.08
2022-10-13T16:51:30.851Z,64.47
2022-10-13T16:54:02.960Z,64.29
2022-10-13T16:56:30.490Z,64.71
2022-10-13T16:58:57.131Z,64.32
2022-10-13T17:01:23.490Z,64.67
2022-10-13T17:03:50.966Z,64.67
2022-10-13T17:06:17.294Z,64.78
2022-10-13T17:08:43.812Z,64.81
2022-10-13T17:11:10.100Z,64.39
2022-10-13T17:13:36.629Z,64.76
2022-10-13T17:16:04.077Z,64.89
2022-10-13T17:18:30.994Z,64.91
2022-10-13T17:20:57.301Z,64.92
2022-10-13T17:23:23.668Z,64.84
2022-10-13T17:25:50.167Z,64.94
2022-10-13T17:28:16.667Z,64.97
2022-10-13T17:30:43.736Z,65.19
2022-10-13T17:33:10.203Z,64.99
2022-10-13T17:35:36.464Z,64.68
2022-10-13T17:38:02.957Z,64.84
2022-10-13T17:40:29.371Z,65.23
2022-10-13T17:42:55.941Z,65.19
2022-10-13T17:45:22.393Z,64.93
2022-10-13T17:47:48.790Z,64.89
2022-10-13T17:50:15.423Z,64.84
2022-10-13T17:52:41.765Z,65.18
2022-10-13T17:55:08.155Z,65.08
2022-10-13T17:57:34.488Z,64.96
2022-10-13T18:00:00.874Z,65.17
2022-10-13T18:02:27.503Z,65.28
2022-10-13T18:04:54.282Z,65.30
2022-10-13T18:07:23.994Z,65.17
2022-10-13T18:09:50.316Z,65.26
2022-10-13T18:12:18.278Z,65.33
2022-10-13T18:14:44.652Z,65.72
2022-10-13T18:17:11.149Z,65.42
2022-10-13T18:19:40.287Z,65.55
2022-10-13T18:22:07.003Z,65.39
2022-10-13T18:24:33.302Z,64.91
2022-10-13T18:26:59.727Z,65.03
2022-10-13T18:29:26.188Z,65.29
2022-10-13T18:31:52.568Z,65.15
2022-10-13T18:34:19.059Z,65.09
2022-10-13T18:36:45.727Z,65.05
2022-10-13T18:39:12.065Z,65.26
2022-10-13T18:41:38.526Z,65.30
2022-10-13T18:44:05.036Z,65.24
2022-10-13T18:46:31.627Z,65.10
2022-10-13T18:48:58.581Z,65.36
2022-10-13T18:51:25.058Z,65.19
2022-10-13T18:53:51.460Z,65.26
2022-10-13T18:56:17.813Z,65.10
2022-10-13T18:58:44.331Z,65.08
2022-10-13T19:01:10.820Z,65.10
2022-10-13T19:03:37.277Z,65.03
2022-10-13T19:06:03.776Z,64.83
2022-10-13T19:08:30.166Z,64.65
2022-10-13T19:10:56.796Z,64.82
2022-10-13T19:13:23.205Z,65.16
2022-10-13T19:15:49.830Z,65.13
2022-10-13T19:18:16.300Z,64.77
2022-10-13T19:20:42.727Z,64.94
2022-10-13T19:23:10.075Z,65.39
2022-10-13T19:25:36.431Z,65.16
2022-10-13T19:28:02.808Z,65.27
2022-10-13T19:30:29.145Z,64.91
2022-10-13T19:32:55.496Z,64.68
2022-10-13T19:35:21.834Z,65.14
2022-10-13T19:37:48.204Z,65.14
2022-10-13T19:42:45.951Z,64.85
2022-10-13T19:47:56.503Z,65.15
2022-10-13T19:50:23.002Z,64.84
2022-10-13T19:52:49.687Z,64.89
2022-10-13T19:55:18.045Z,64.90
2022-10-13T19:57:44.561Z,64.78
2022-10-13T20:00:10.912Z,64.87
2022-10-13T20:02:37.348Z,64.92
2022-10-13T20:05:03.826Z,64.90
2022-10-13T20:07:30.227Z,65.08
2022-10-13T20:09:56.871Z,64.66
2022-10-13T20:12:23.449Z,64.70
2022-10-13T20:14:49.909Z,64.70
2022-10-13T20:17:16.543Z,65.06
2022-10-13T20:19:43.783Z,64.92
2022-10-13T20:22:11.019Z,64.64
2022-10-13T20:24:37.809Z,65.01
2022-10-13T20:27:04.668Z,64.68
2022-10-13T20:29:31.127Z,64.88
2022-10-13T20:32:02.256Z,64.73
2022-10-13T20:34:28.708Z,64.81
2022-10-13T20:36:55.192Z,64.65
2022-10-13T20:42:05.785Z,64.65
2022-10-13T20:44:32.448Z,64.62
2022-10-13T20:46:58.924Z,64.34
2022-10-13T20:49:25.688Z,64.32
2022-10-13T20:51:56.029Z,64.38
2022-10-13T20:54:22.420Z,63.67
2022-10-13T20:56:49.063Z,64.10
2022-10-13T20:59:15.542Z,63.75
2022-10-13T21:01:41.989Z,63.85
2022-10-13T21:04:08.413Z,63.89
2022-10-13T21:06:34.852Z,63.87
2022-10-13T21:09:01.257Z,64.26
2022-10-13T21:11:27.739Z,64.01
2022-10-13T21:13:54.299Z,63.82
2022-10-13T21:16:20.707Z,63.99
2022-10-13T21:18:47.098Z,63.61
2022-10-13T21:21:13.556Z,63.46
2022-10-13T21:23:40.013Z,63.97
2022-10-13T21:26:06.619Z,63.90
2022-10-13T21:28:33.044Z,63.73
2022-10-13T21:30:59.614Z,63.69
2022-10-13T21:33:26.063Z,63.57
2022-10-13T21:35:52.406Z,63.81
2022-10-13T21:38:18.891Z,63.78
2022-10-13T21:40:49.338Z,63.46
2022-10-13T21:43:18.015Z,63.68
2022-10-13T21:45:44.362Z,63.48
2022-10-13T21:48:10.836Z,63.45
2022-10-13T21:50:37.116Z,63.59
2022-10-13T21:53:03.564Z,63.63
2022-10-13T21:55:30.914Z,63.37
2022-10-13T21:58:00.579Z,63.76
2022-10-13T22:00:29.383Z,63.50
2022-10-13T22:02:56.171Z,63.30
2022-10-13T22:05:22.566Z,63.31
2022-10-13T22:07:48.975Z,63.54
2022-10-13T22:10:15.451Z,63.14
2022-10-13T22:12:45.096Z,63.10
2022-10-13T22:15:11.538Z,62.92
2022-10-13T22:17:37.881Z,63.48
2022-10-13T22:20:04.153Z,62.98
2022-10-13T22:22:31.187Z,63.43
2022-10-13T22:24:57.609Z,62.82
2022-10-13T22:27:24.018Z,63.24
2022-10-13T22:29:50.502Z,63.26
2022-10-13T22:32:16.832Z,63.09
2022-10-13T22:34:43.235Z,62.99
2022-10-13T22:37:09.696Z,62.95
2022-10-13T22:39:36.159Z,63.17
2022-10-13T22:42:02.567Z,63.16
2022-10-13T22:44:28.936Z,63.03
2022-10-13T22:46:55.288Z,62.90
2022-10-13T22:49:21.885Z,63.28
2022-10-13T22:51:48.366Z,63.13
2022-10-13T22:54:15.001Z,62.97
2022-10-13T22:56:41.778Z,63.23
2022-10-13T22:59:08.204Z,63.38
2022-10-13T23:01:34.586Z,62.96
2022-10-13T23:04:00.939Z,63.21
2022-10-13T23:06:27.390Z,62.81
2022-10-13T23:08:53.751Z,63.10
2022-10-13T23:11:20.465Z,62.84
2022-10-13T23:13:46.762Z,63.05
2022-10-13T23:16:13.133Z,62.77
2022-10-13T23:18:39.467Z,62.98
2022-10-13T23:21:05.878Z,62.75
2022-10-13T23:23:32.353Z,62.71
2022-10-13T23:25:58.895Z,62.69
2022-10-13T23:28:26.287Z,62.62
2022-10-13T23:30:52.688Z,62.81
2022-10-13T23:33:19.018Z,62.82
2022-10-13T23:35:45.371Z,62.63
2022-10-13T23:38:11.703Z,62.46
2022-10-13T23:40:38.080Z,62.75
2022-10-13T23:43:04.468Z,62.41
2022-10-13T23:45:30.929Z,62.46
2022-10-13T23:47:57.295Z,62.92
2022-10-13T23:50:23.647Z,62.41
2022-10-13T23:52:50.025Z,62.40
2022-10-13T23:55:16.347Z,62.33
2022-10-13T23:57:42.691Z,62.40
